• Join FlightAware (Why Join?)
  • Login
  • US Flag 
Gobble Gobble! 
12:27PM EST


 

Airport Tracker/Info


-or-


 

Live Flight TrackerFlight Track Log ✈ UPS1111 ✈ 18-Jul-2014 ✈ KJFK - KSDF

Flight Track Log - Related Links

Times and Time Zones

All times are in EDT time to prevent confusion due to time zone crossing. See the UPS1111 flight status page for this flight to view local times or setup timezone preferences in your user account.

Time Position Orientation Groundspeed Altitude Reporting Facility
EDT Latitude Longitude Course Direction KTS MPH feet Rate Location/Type
11:21PM 40.4088 -74.1083 236° Southwest 361 415 12,300  Level FlightAware ADS-B (KPHL)
11:22PM 40.3541 -74.2337 253° West 403 464 15,100 2,940 Climbing FlightAware ADS-B (KPHL)
11:23PM 40.3366 -74.3775 261° West 428 493 18,200 3,120 Climbing FlightAware ADS-B (KPHL)
11:24PM 40.3175 -74.5353 261° West 440 506 21,300 3,000 Climbing FlightAware ADS-B (KPHL)
11:25PM 40.3000 -74.6805 261° West 449 517 24,000 2,340 Climbing FlightAware ADS-B (KPHL)
11:26PM 40.2779 -74.8616 261° West 469 540 26,100 2,160 Climbing FlightAware ADS-B (KPHL)
11:27PM 40.2578 -75.0312 264° West 469 540 28,600 3,060 Climbing FlightAware ADS-B (KPHL)
11:27PM 40.2552 -75.0645 264° West 454 522 30,800 1,860 Climbing FlightAware ADS-B (KPNE)
11:30PM 40.2232 -75.4490 263° West 433 498 34,000 900 Climbing FlightAware ADS-B (KPHL)
11:31PM 40.2051 -75.6479 263° West 433 498 34,000  Level FlightAware ADS-B (KPHL)
11:32PM 40.1913 -75.7993 263° West 432 497 34,000  Level FlightAware ADS-B
11:33PM 40.1754 -75.9724 263° West 432 497 34,000  Level FlightAware ADS-B (KPHL)
11:34PM 40.1651 -76.0821 263° West 433 498 34,000  Level FlightAware ADS-B (KPHL)
11:35PM 40.1480 -76.2619 263° West 435 501 34,000 840 Level FlightAware ADS-B (KAPG)
11:36PM 40.1379 -76.3675 263° West 426 490 35,500 1,380 Climbing FlightAware ADS-B (KAPG)
11:36PM 40.1267 -76.4818 263° West 425 489 36,000 180 Climbing FlightAware ADS-B (KAPG)
11:38PM 40.1030 -76.7215 263° West 425 489 36,000  Level FlightAware ADS-B (KJYO)
11:38PM 40.1017 -76.7344 263° West 425 489 36,000  Level FlightAware ADS-B (KAPG)
11:38PM 40.0969 -76.7819 263° West 424 488 36,000  Level FlightAware ADS-B (KJYO)
11:39PM 40.0913 -76.8383 263° West 427 491 36,000  Level FlightAware ADS-B (KAPG)
11:44PM 40.0061 -77.6529 262° West 432 497 36,000  Level FlightAware ADS-B
11:44PM 40.0013 -77.6966 262° West 432 497 36,000  Level FlightAware ADS-B
11:45PM 39.9913 -77.7880 262° West 431 496 36,000  Level FlightAware ADS-B (KJYO)
11:45PM 39.9830 -77.8640 262° West 432 497 36,000  Level FlightAware ADS-B (KJYO)
11:46PM 39.9826 -77.8678 262° West 432 497 36,000  Level FlightAware ADS-B (KJYO)
11:46PM 39.9700 -77.9828 262° West 431 496 36,000  Level Cleveland Center
11:47PM 39.9525 -78.1364 262° West 431 496 36,000  Level Cleveland Center
11:48PM 39.9336 -78.3036 262° West 432 497 36,000  Level Cleveland Center
11:49PM 39.9158 -78.4575 261° West 432 497 36,000  Level Cleveland Center
11:50PM 39.8981 -78.6122 262° West 433 498 36,000  Level Cleveland Center
11:51PM 39.8797 -78.7672 261° West 434 499 36,000  Level Cleveland Center
11:52PM 39.8614 -78.9214 261° West 434 499 36,000  Level Cleveland Center
11:53PM 39.8403 -79.0953 261° West 433 498 36,000  Level Cleveland Center
11:54PM 39.8217 -79.2494 261° West 432 497 36,000  Level Cleveland Center
11:55PM 39.8025 -79.4036 261° West 432 497 36,000  Level Cleveland Center
11:56PM 39.7833 -79.5572 261° West 431 496 36,000  Level Cleveland Center
11:57PM 39.7639 -79.7106 261° West 431 496 36,000  Level Cleveland Center
11:58PM 39.7444 -79.8644 261° West 431 496 36,000  Level Cleveland Center
11:59PM 39.7244 -80.0181 260° West 430 495 36,000  Level Cleveland Center
12:00AM 39.7047 -80.1719 261° West 431 496 36,000  Level Cleveland Center
12:01AM 39.6842 -80.3256 260° West 431 496 36,000  Level Cleveland Center
12:02AM 39.6639 -80.4783 260° West 430 495 36,000  Level Cleveland Center
12:03AM 39.6436 -80.6303 260° West 429 494 36,000  Level Cleveland Center
12:04AM 39.6231 -80.7814 260° West 427 491 36,000  Level Cleveland Center
12:10AM 39.6406 -80.6523 255° West 429 494 36,000  Level FlightAware ADS-B
12:15AM 39.3462 -82.3303 255° West 438 504 36,000  Level FlightAware ADS-B
12:15AM 39.3299 -82.4074 255° West 437 503 36,000  Level FlightAware ADS-B
12:16AM 39.3142 -82.4824 255° West 437 503 36,000  Level FlightAware ADS-B
12:16AM 39.2937 -82.5795 255° West 438 504 36,000  Level FlightAware ADS-B
12:17AM 39.2686 -82.6975 255° West 438 504 36,000  Level FlightAware ADS-B
12:18AM 39.2497 -82.7856 255° West 437 503 36,000  Level FlightAware ADS-B
12:18AM 39.2306 -82.8745 254° West 441 507 36,000  Level FlightAware ADS-B
12:19AM 39.2148 -82.9481 255° West 443 510 36,000  Level FlightAware ADS-B
12:19AM 39.1981 -83.0256 255° West 444 511 36,000 -120 Level FlightAware ADS-B
12:20AM 39.1817 -83.1013 254° West 445 512 35,900 -840 Descending FlightAware ADS-B
12:20AM 39.1654 -83.1758 254° West 448 516 35,200 -1,320 Descending FlightAware ADS-B
12:21AM 39.1476 -83.2571 254° West 450 518 34,600 -1,140 Descending FlightAware ADS-B
12:21AM 39.1312 -83.3325 254° West 449 517 34,100 -1,020 Descending FlightAware ADS-B
12:22AM 39.1149 -83.4059 254° West 448 516 33,600 -1,020 Descending FlightAware ADS-B
12:22AM 39.0972 -83.4859 254° West 449 517 33,100 -1,080 Descending FlightAware ADS-B
12:23AM 39.0747 -83.5876 254° West 448 516 32,400 -1,080 Descending FlightAware ADS-B
12:24AM 39.0519 -83.6906 254° West 448 516 31,700 -1,140 Descending FlightAware ADS-B
12:24AM 39.0351 -83.7654 254° West 451 519 31,100 -1,320 Descending FlightAware ADS-B
12:25AM 39.0130 -83.8643 254° West 455 524 30,200 -960 Descending FlightAware ADS-B
12:25AM 38.9939 -83.9490 254° West 454 522 30,000 -300 Descending FlightAware ADS-B
12:26AM 38.9779 -84.0196 254° West 456 525 29,900 -1,140 Descending FlightAware ADS-B
12:26AM 38.9588 -84.1037 254° West 448 516 28,900 -2,580 Descending FlightAware ADS-B
12:27AM 38.9354 -84.2070 254° West 444 511 26,900 -3,060 Descending FlightAware ADS-B
12:28AM 38.9125 -84.3065 254° West 440 506 24,900 -3,060 Descending FlightAware ADS-B
12:28AM 38.9022 -84.3514 254° West 437 503 23,400 -2,940 Descending FlightAware ADS-B
12:29AM 38.8666 -84.5059 254° West 429 494 21,000 -2,820 Descending FlightAware ADS-B
12:29AM 38.8537 -84.5620 254° West 419 482 19,400 -2,700 Descending FlightAware ADS-B (KCVG)
12:30AM 38.8280 -84.6719 253° West 409 471 17,800 -2,820 Descending FlightAware ADS-B (KCVG)
12:31AM 38.8060 -84.7662 253° West 396 456 15,900 -2,880 Descending FlightAware ADS-B (KCVG)
12:31AM 38.7868 -84.8487 253° West 385 443 14,200 -2,760 Descending FlightAware ADS-B (KCVG)
12:32AM 38.7642 -84.9323 253° West 376 433 12,400 -2,580 Descending FlightAware ADS-B (KCVG)
12:32AM 38.7574 -84.9453 233° Southwest 373 429 12,100 -2,280 Descending FlightAware ADS-B (KCVG)
12:33AM 38.7167 -85.0000 233° Southwest 368 423 10,700 -1,620 Descending Cincinnati TRACON
12:33AM 38.6725 -85.0358 212° Southwest 371 427 10,100 -840 Descending Indianapolis Center
12:39AM 38.2993 -85.3921 217° Southwest 256 295 5,800 -720 Descending FlightAware ADS-B (KBRY)
12:40AM 38.2517 -85.4450 254° West 229 264 5,800  Level FlightAware ADS-B (KBRY)
12:41AM 38.2484 -85.5285 268° West 232 267 5,800 -180 Level FlightAware ADS-B (KBRY)
12:42AM 38.2462 -85.6031 268° West 230 265 5,500 -660 Descending FlightAware ADS-B (KBRY)
12:43AM 38.2115 -85.6585 168° South 219 252 4,500 -900 Descending FlightAware ADS-B (KBRY)
12:44AM 38.1570 -85.6378 163° South 207 238 3,800 -300 Descending FlightAware ADS-B (KBRY)
12:45AM 38.0989 -85.6156 163° South 197 227 3,900  Climbing FlightAware ADS-B (KBRY)
12:46AM 38.0464 -85.5954 163° South 196 226 3,900 -420 Level FlightAware ADS-B (KBRY)
12:47AM 37.9958 -85.5762 163° South 193 222 3,100 -780 Descending FlightAware ADS-B (KBRY)
12:48AM 37.9445 -85.5583 186° South 182 209 2,400 -420 Descending FlightAware ADS-B (KBRY)
12:49AM 37.9312 -85.6115 304° West 188 216 2,300 60 Descending FlightAware ADS-B (KBRY)
12:49AM 37.9333 -85.6167 314° West 193 222 2,500 60 Climbing Louisville TRACON
12:50AM 37.9714 -85.6549 320° Northwest 191 220 2,400 -120 Descending FlightAware ADS-B (KBRY)
12:51AM 38.0774 -85.6883 314° West  Level Estimated
12:51AM 38.0212 -85.6751 347° North 178 205 2,300  Level FlightAware ADS-B (KBRY)
12:52AM 38.0691 -85.6911 346° North 180 207 2,300 60 Level FlightAware ADS-B (KBRY)
12:52AM 38.0667 -85.6833 314° West 180 207 2,400 -1,020 Climbing Louisville TRACON
12:53AM 38.1123 -85.7058 345° North 161 185 1,400 -1,140 Descending FlightAware ADS-B (KBRY)
12:55AM 38.1667 -85.7333 314° West  Level FlightAware Approximate